sensor_id;sensor_type;location;lat;lon;timestamp;pressure;altitude;pressure_sealevel;temperature;humidity
23679;BME280;12016;51.668;6.874;2022-08-02T00:00:45;101685.19;;;19.69;86.80
23679;BME280;12016;51.668;6.874;2022-08-02T00:06:47;101684.13;;;19.56;87.23
23679;BME280;12016;51.668;6.874;2022-08-02T00:12:49;101688.28;;;19.44;86.93
23679;BME280;12016;51.668;6.874;2022-08-02T00:18:52;101679.53;;;19.35;86.75
23679;BME280;12016;51.668;6.874;2022-08-02T00:24:53;101677.22;;;19.23;86.84
23679;BME280;12016;51.668;6.874;2022-08-02T00:30:57;101672.91;;;19.15;86.30
23679;BME280;12016;51.668;6.874;2022-08-02T00:36:58;101684.56;;;19.14;87.34
23679;BME280;12016;51.668;6.874;2022-08-02T00:43:02;101667.72;;;19.14;86.36
23679;BME280;12016;51.668;6.874;2022-08-02T00:49:05;101670.09;;;19.15;86.52
23679;BME280;12016;51.668;6.874;2022-08-02T00:55:07;101674.50;;;19.16;86.61
23679;BME280;12016;51.668;6.874;2022-08-02T01:01:09;101681.78;;;19.10;88.05
23679;BME280;12016;51.668;6.874;2022-08-02T01:07:11;101674.19;;;19.07;88.50
23679;BME280;12016;51.668;6.874;2022-08-02T01:13:15;101670.59;;;19.03;88.29
23679;BME280;12016;51.668;6.874;2022-08-02T01:19:32;101690.28;;;19.00;89.28
23679;BME280;12016;51.668;6.874;2022-08-02T01:26:02;101671.84;;;18.99;89.25
23679;BME280;12016;51.668;6.874;2022-08-02T01:32:15;101664.69;;;18.94;87.91
23679;BME280;12016;51.668;6.874;2022-08-02T01:38:43;101656.75;;;18.82;88.56
23679;BME280;12016;51.668;6.874;2022-08-02T01:44:48;101656.75;;;18.82;88.59
23679;BME280;12016;51.668;6.874;2022-08-02T01:50:52;101664.78;;;18.83;88.66
23679;BME280;12016;51.668;6.874;2022-08-02T01:56:55;101655.22;;;18.74;88.15
23679;BME280;12016;51.668;6.874;2022-08-02T02:02:59;101654.47;;;18.66;89.08
23679;BME280;12016;51.668;6.874;2022-08-02T02:09:04;101651.78;;;18.56;89.55
23679;BME280;12016;51.668;6.874;2022-08-02T02:15:09;101651.03;;;18.48;89.67
23679;BME280;12016;51.668;6.874;2022-08-02T02:21:12;101650.25;;;18.44;89.38
23679;BME280;12016;51.668;6.874;2022-08-02T02:27:14;101646.66;;;18.44;89.42
23679;BME280;12016;51.668;6.874;2022-08-02T02:33:19;101637.88;;;18.42;89.57
23679;BME280;12016;51.668;6.874;2022-08-02T02:39:26;101635.84;;;18.42;88.94
23679;BME280;12016;51.668;6.874;2022-08-02T02:45:30;101620.22;;;18.38;88.81
23679;BME280;12016;51.668;6.874;2022-08-02T02:51:34;101608.72;;;18.25;89.17
23679;BME280;12016;51.668;6.874;2022-08-02T02:57:36;101608.34;;;18.16;89.82
23679;BME280;12016;51.668;6.874;2022-08-02T03:03:40;101604.81;;;18.09;89.53
23679;BME280;12016;51.668;6.874;2022-08-02T03:09:42;101600.44;;;18.04;90.00
23679;BME280;12016;51.668;6.874;2022-08-02T03:15:44;101613.25;;;18.02;90.14
23679;BME280;12016;51.668;6.874;2022-08-02T03:21:48;101614.91;;;17.96;90.29
23679;BME280;12016;51.668;6.874;2022-08-02T03:27:50;101598.09;;;17.99;90.24
23679;BME280;12016;51.668;6.874;2022-08-02T03:33:54;101589.69;;;17.96;89.26
23679;BME280;12016;51.668;6.874;2022-08-02T03:39:57;101592.53;;;17.89;88.72
23679;BME280;12016;51.668;6.874;2022-08-02T03:46:00;101596.53;;;17.91;88.97
23679;BME280;12016;51.668;6.874;2022-08-02T03:52:05;101600.59;;;17.83;89.07
23679;BME280;12016;51.668;6.874;2022-08-02T03:58:07;101601.38;;;17.80;89.56
23679;BME280;12016;51.668;6.874;2022-08-02T04:04:09;101591.00;;;17.74;89.93
23679;BME280;12016;51.668;6.874;2022-08-02T04:10:11;101602.25;;;17.70;89.69
23679;BME280;12016;51.668;6.874;2022-08-02T04:16:20;101599.47;;;17.67;89.69
23679;BME280;12016;51.668;6.874;2022-08-02T04:22:27;101605.47;;;17.65;90.32
23679;BME280;12016;51.668;6.874;2022-08-02T04:28:33;101611.03;;;17.69;90.69
23679;BME280;12016;51.668;6.874;2022-08-02T04:34:36;101611.06;;;17.65;90.80
23679;BME280;12016;51.668;6.874;2022-08-02T04:40:39;101608.69;;;17.64;90.90
23679;BME280;12016;51.668;6.874;2022-08-02T04:46:42;101615.44;;;17.73;91.19
23679;BME280;12016;51.668;6.874;2022-08-02T04:52:44;101625.78;;;17.83;91.24
23679;BME280;12016;51.668;6.874;2022-08-02T04:58:46;101624.59;;;17.81;91.40
23679;BME280;12016;51.668;6.874;2022-08-02T05:04:48;101610.94;;;17.90;91.92
23679;BME280;12016;51.668;6.874;2022-08-02T05:10:52;101622.09;;;17.97;91.39
23679;BME280;12016;51.668;6.874;2022-08-02T05:16:54;101616.03;;;18.09;91.80
23679;BME280;12016;51.668;6.874;2022-08-02T05:22:56;101629.19;;;18.19;92.05
23679;BME280;12016;51.668;6.874;2022-08-02T05:28:58;101622.63;;;18.36;92.60
23679;BME280;12016;51.668;6.874;2022-08-02T05:35:01;101614.22;;;18.43;93.21
23679;BME280;12016;51.668;6.874;2022-08-02T05:41:04;101610.88;;;18.58;94.15
23679;BME280;12016;51.668;6.874;2022-08-02T05:47:06;101611.94;;;18.75;94.99
23679;BME280;12016;51.668;6.874;2022-08-02T05:59:44;101600.25;;;19.17;98.09
23679;BME280;12016;51.668;6.874;2022-08-02T06:12:02;101617.72;;;19.39;100.00
23679;BME280;12016;51.668;6.874;2022-08-02T06:18:05;101602.19;;;19.61;100.00
23679;BME280;12016;51.668;6.874;2022-08-02T06:24:09;101613.28;;;19.71;100.00
23679;BME280;12016;51.668;6.874;2022-08-02T06:30:11;101618.81;;;19.78;100.00
23679;BME280;12016;51.668;6.874;2022-08-02T06:36:31;101625.84;;;19.93;100.00
23679;BME280;12016;51.668;6.874;2022-08-02T06:42:46;101642.03;;;20.12;100.00
23679;BME280;12016;51.668;6.874;2022-08-02T06:48:49;101630.09;;;20.58;100.00
23679;BME280;12016;51.668;6.874;2022-08-02T06:54:51;101620.59;;;20.75;100.00
23679;BME280;12016;51.668;6.874;2022-08-02T07:00:53;101608.41;;;20.82;100.00
23679;BME280;12016;51.668;6.874;2022-08-02T07:06:55;101603.88;;;21.11;100.00
23679;BME280;12016;51.668;6.874;2022-08-02T07:12:58;101611.72;;;21.39;100.00
23679;BME280;12016;51.668;6.874;2022-08-02T07:19:00;101592.16;;;21.71;100.00
23679;BME280;12016;51.668;6.874;2022-08-02T07:25:04;101598.03;;;21.96;100.00
23679;BME280;12016;51.668;6.874;2022-08-02T07:31:06;101598.78;;;22.16;100.00
23679;BME280;12016;51.668;6.874;2022-08-02T07:37:09;101573.06;;;22.46;96.77
23679;BME280;12016;51.668;6.874;2022-08-02T07:43:11;101570.41;;;22.71;94.92
23679;BME280;12016;51.668;6.874;2022-08-02T07:49:17;101552.81;;;22.96;90.47
23679;BME280;12016;51.668;6.874;2022-08-02T07:55:19;101550.03;;;23.09;88.34
23679;BME280;12016;51.668;6.874;2022-08-02T08:01:21;101547.88;;;23.29;84.69
23679;BME280;12016;51.668;6.874;2022-08-02T08:07:23;101529.28;;;23.56;82.50
23679;BME280;12016;51.668;6.874;2022-08-02T08:13:28;101525.56;;;23.84;81.71
23679;BME280;12016;51.668;6.874;2022-08-02T08:19:30;101517.56;;;24.08;79.05
23679;BME280;12016;51.668;6.874;2022-08-02T08:25:32;101504.50;;;24.36;75.43
23679;BME280;12016;51.668;6.874;2022-08-02T08:31:35;101495.91;;;24.61;70.37
23679;BME280;12016;51.668;6.874;2022-08-02T08:37:38;101495.31;;;24.78;67.59
23679;BME280;12016;51.668;6.874;2022-08-02T08:43:42;101490.06;;;24.89;64.68
23679;BME280;12016;51.668;6.874;2022-08-02T08:49:46;101492.81;;;25.02;65.09
23679;BME280;12016;51.668;6.874;2022-08-02T08:55:52;101500.19;;;25.21;67.18
23679;BME280;12016;51.668;6.874;2022-08-02T09:01:57;101494.81;;;25.14;68.78
23679;BME280;12016;51.668;6.874;2022-08-02T09:07:59;101486.44;;;25.32;70.27
23679;BME280;12016;51.668;6.874;2022-08-02T09:14:02;101486.22;;;25.48;69.66
23679;BME280;12016;51.668;6.874;2022-08-02T09:20:06;101477.50;;;25.73;70.43
23679;BME280;12016;51.668;6.874;2022-08-02T09:26:10;101471.59;;;25.98;70.01
23679;BME280;12016;51.668;6.874;2022-08-02T09:32:14;101467.75;;;26.23;69.97
23679;BME280;12016;51.668;6.874;2022-08-02T09:38:17;101470.31;;;26.48;68.49
23679;BME280;12016;51.668;6.874;2022-08-02T09:44:18;101456.63;;;26.74;68.03
23679;BME280;12016;51.668;6.874;2022-08-02T09:50:21;101472.56;;;26.80;67.52
23679;BME280;12016;51.668;6.874;2022-08-02T09:56:25;101464.72;;;27.44;68.28
23679;BME280;12016;51.668;6.874;2022-08-02T10:02:27;101463.81;;;27.70;65.93
23679;BME280;12016;51.668;6.874;2022-08-02T10:08:30;101469.94;;;27.36;65.42
23679;BME280;12016;51.668;6.874;2022-08-02T10:14:33;101457.44;;;27.43;65.23
23679;BME280;12016;51.668;6.874;2022-08-02T10:20:41;101458.25;;;27.76;65.08
23679;BME280;12016;51.668;6.874;2022-08-02T10:26:45;101447.22;;;28.02;65.30
23679;BME280;12016;51.668;6.874;2022-08-02T10:32:48;101437.00;;;28.19;64.31
23679;BME280;12016;51.668;6.874;2022-08-02T10:38:50;101430.22;;;27.83;63.61
23679;BME280;12016;51.668;6.874;2022-08-02T10:45:08;101434.28;;;27.68;63.25
23679;BME280;12016;51.668;6.874;2022-08-02T10:51:10;101431.06;;;28.31;62.21
23679;BME280;12016;51.668;6.874;2022-08-02T10:57:16;101429.22;;;28.43;61.33
23679;BME280;12016;51.668;6.874;2022-08-02T11:09:31;101415.69;;;28.90;56.74
23679;BME280;12016;51.668;6.874;2022-08-02T11:15:56;101424.88;;;29.23;55.97
23679;BME280;12016;51.668;6.874;2022-08-02T11:28:10;101419.63;;;29.66;56.25
23679;BME280;12016;51.668;6.874;2022-08-02T11:34:12;101408.88;;;29.95;55.23
23679;BME280;12016;51.668;6.874;2022-08-02T11:40:17;101396.97;;;31.08;54.93
23679;BME280;12016;51.668;6.874;2022-08-02T11:46:20;101395.00;;;31.51;51.53
23679;BME280;12016;51.668;6.874;2022-08-02T11:52:31;101388.09;;;31.68;48.32
23679;BME280;12016;51.668;6.874;2022-08-02T11:58:34;101360.34;;;35.56;44.11
23679;BME280;12016;51.668;6.874;2022-08-02T12:04:37;101383.94;;;37.14;38.35
23679;BME280;12016;51.668;6.874;2022-08-02T12:10:47;101376.31;;;38.00;33.95
23679;BME280;12016;51.668;6.874;2022-08-02T12:16:50;101388.47;;;37.86;33.32
23679;BME280;12016;51.668;6.874;2022-08-02T12:23:10;101387.13;;;38.26;34.43
23679;BME280;12016;51.668;6.874;2022-08-02T12:29:13;101381.28;;;39.68;31.73
23679;BME280;12016;51.668;6.874;2022-08-02T12:35:18;101383.25;;;39.73;32.27
23679;BME280;12016;51.668;6.874;2022-08-02T12:41:23;101379.28;;;41.66;29.44
23679;BME280;12016;51.668;6.874;2022-08-02T12:47:26;101385.41;;;42.15;30.60
23679;BME280;12016;51.668;6.874;2022-08-02T12:53:32;101379.25;;;41.96;27.68
23679;BME280;12016;51.668;6.874;2022-08-02T12:59:36;101376.09;;;39.95;31.11
23679;BME280;12016;51.668;6.874;2022-08-02T13:05:39;101358.41;;;40.13;29.99
23679;BME280;12016;51.668;6.874;2022-08-02T13:11:42;101344.38;;;40.32;29.56
23679;BME280;12016;51.668;6.874;2022-08-02T13:17:44;101345.03;;;43.82;27.93
23679;BME280;12016;51.668;6.874;2022-08-02T13:23:46;101352.91;;;44.40;26.42
23679;BME280;12016;51.668;6.874;2022-08-02T13:29:49;101340.56;;;43.64;27.03
23679;BME280;12016;51.668;6.874;2022-08-02T13:35:51;101329.19;;;46.00;25.53
23679;BME280;12016;51.668;6.874;2022-08-02T13:41:53;101329.16;;;45.43;25.59
23679;BME280;12016;51.668;6.874;2022-08-02T13:47:55;101335.06;;;42.69;26.28
23679;BME280;12016;51.668;6.874;2022-08-02T13:53:57;101338.53;;;39.41;30.78
23679;BME280;12016;51.668;6.874;2022-08-02T13:59:59;101327.88;;;36.91;33.24
23679;BME280;12016;51.668;6.874;2022-08-02T14:06:05;101312.63;;;36.59;33.18
23679;BME280;12016;51.668;6.874;2022-08-02T14:12:07;101318.59;;;35.87;35.10
23679;BME280;12016;51.668;6.874;2022-08-02T14:18:11;101312.94;;;36.55;34.62
23679;BME280;12016;51.668;6.874;2022-08-02T14:24:15;101304.09;;;37.17;32.90
23679;BME280;12016;51.668;6.874;2022-08-02T14:30:19;101299.19;;;37.12;32.67
23679;BME280;12016;51.668;6.874;2022-08-02T14:36:22;101292.72;;;35.57;35.20
23679;BME280;12016;51.668;6.874;2022-08-02T14:42:24;101289.56;;;34.37;36.12
23679;BME280;12016;51.668;6.874;2022-08-02T14:48:27;101287.47;;;34.37;37.79
23679;BME280;12016;51.668;6.874;2022-08-02T14:54:30;101272.59;;;33.81;38.33
23679;BME280;12016;51.668;6.874;2022-08-02T15:00:33;101280.03;;;34.17;38.44
23679;BME280;12016;51.668;6.874;2022-08-02T15:06:37;101270.91;;;33.40;38.29
23679;BME280;12016;51.668;6.874;2022-08-02T15:12:39;101260.25;;;34.03;37.00
23679;BME280;12016;51.668;6.874;2022-08-02T15:18:41;101264.38;;;33.34;37.94
23679;BME280;12016;51.668;6.874;2022-08-02T15:24:43;101264.00;;;33.76;37.46
23679;BME280;12016;51.668;6.874;2022-08-02T15:30:45;101263.13;;;32.57;39.40
23679;BME280;12016;51.668;6.874;2022-08-02T15:36:48;101257.34;;;33.24;38.83
23679;BME280;12016;51.668;6.874;2022-08-02T15:42:50;101266.81;;;32.96;38.95
23679;BME280;12016;51.668;6.874;2022-08-02T15:48:51;101249.59;;;32.74;39.45
23679;BME280;12016;51.668;6.874;2022-08-02T15:54:54;101248.28;;;32.92;39.56
23679;BME280;12016;51.668;6.874;2022-08-02T16:00:56;101246.44;;;32.78;39.41
23679;BME280;12016;51.668;6.874;2022-08-02T16:06:58;101230.44;;;33.43;38.14
23679;BME280;12016;51.668;6.874;2022-08-02T16:13:00;101236.78;;;33.09;38.52
23679;BME280;12016;51.668;6.874;2022-08-02T16:19:21;101237.03;;;32.88;38.60
23679;BME280;12016;51.668;6.874;2022-08-02T16:25:24;101245.91;;;32.68;38.40
23679;BME280;12016;51.668;6.874;2022-08-02T16:31:27;101227.41;;;32.75;38.83
23679;BME280;12016;51.668;6.874;2022-08-02T16:37:29;101216.69;;;32.31;38.57
23679;BME280;12016;51.668;6.874;2022-08-02T16:43:31;101219.19;;;31.85;39.76
23679;BME280;12016;51.668;6.874;2022-08-02T16:49:33;101201.56;;;32.25;39.74
23679;BME280;12016;51.668;6.874;2022-08-02T16:55:40;101199.75;;;32.39;39.78
23679;BME280;12016;51.668;6.874;2022-08-02T17:01:42;101198.22;;;32.60;39.86
23679;BME280;12016;51.668;6.874;2022-08-02T17:07:44;101192.22;;;32.52;39.84
23679;BME280;12016;51.668;6.874;2022-08-02T17:13:46;101188.31;;;32.61;39.85
23679;BME280;12016;51.668;6.874;2022-08-02T17:19:48;101191.91;;;32.83;40.02
23679;BME280;12016;51.668;6.874;2022-08-02T17:25:50;101189.06;;;32.94;39.30
23679;BME280;12016;51.668;6.874;2022-08-02T17:31:52;101198.97;;;32.27;41.04
23679;BME280;12016;51.668;6.874;2022-08-02T17:37:53;101195.03;;;32.25;41.16
23679;BME280;12016;51.668;6.874;2022-08-02T17:43:55;101194.25;;;32.13;41.10
23679;BME280;12016;51.668;6.874;2022-08-02T17:49:57;101190.41;;;32.55;40.69
23679;BME280;12016;51.668;6.874;2022-08-02T17:55:59;101193.53;;;32.40;40.51
23679;BME280;12016;51.668;6.874;2022-08-02T18:02:01;101189.34;;;32.41;40.93
23679;BME280;12016;51.668;6.874;2022-08-02T18:08:06;101190.63;;;32.18;41.19
23679;BME280;12016;51.668;6.874;2022-08-02T18:14:12;101199.88;;;31.80;41.32
23679;BME280;12016;51.668;6.874;2022-08-02T18:20:19;101198.59;;;31.81;41.85
23679;BME280;12016;51.668;6.874;2022-08-02T18:26:21;101200.81;;;31.44;42.22
23679;BME280;12016;51.668;6.874;2022-08-02T18:32:23;101203.72;;;31.60;41.86
23679;BME280;12016;51.668;6.874;2022-08-02T18:38:25;101201.13;;;31.57;42.43
23679;BME280;12016;51.668;6.874;2022-08-02T18:44:29;101203.69;;;31.49;42.63
23679;BME280;12016;51.668;6.874;2022-08-02T18:50:31;101208.03;;;31.34;43.39
23679;BME280;12016;51.668;6.874;2022-08-02T18:56:33;101202.94;;;31.12;43.73
23679;BME280;12016;51.668;6.874;2022-08-02T19:02:35;101209.38;;;31.02;44.29
23679;BME280;12016;51.668;6.874;2022-08-02T19:08:36;101206.94;;;30.84;44.93
23679;BME280;12016;51.668;6.874;2022-08-02T19:14:38;101211.16;;;30.63;45.82
23679;BME280;12016;51.668;6.874;2022-08-02T19:20:41;101210.28;;;30.51;45.87
23679;BME280;12016;51.668;6.874;2022-08-02T19:26:42;101218.72;;;30.34;46.71
23679;BME280;12016;51.668;6.874;2022-08-02T19:32:44;101213.41;;;30.22;47.18
23679;BME280;12016;51.668;6.874;2022-08-02T19:38:46;101215.50;;;30.01;48.18
23679;BME280;12016;51.668;6.874;2022-08-02T19:44:49;101216.81;;;29.80;49.71
23679;BME280;12016;51.668;6.874;2022-08-02T19:50:54;101221.97;;;29.56;51.05
23679;BME280;12016;51.668;6.874;2022-08-02T19:56:57;101230.06;;;29.23;52.19
23679;BME280;12016;51.668;6.874;2022-08-02T20:02:59;101237.34;;;28.75;54.58
23679;BME280;12016;51.668;6.874;2022-08-02T20:09:02;101238.13;;;28.75;55.02
23679;BME280;12016;51.668;6.874;2022-08-02T20:15:04;101232.25;;;28.35;55.77
23679;BME280;12016;51.668;6.874;2022-08-02T20:21:08;101233.44;;;28.29;56.10
23679;BME280;12016;51.668;6.874;2022-08-02T20:27:10;101246.75;;;28.23;56.72
23679;BME280;12016;51.668;6.874;2022-08-02T20:33:13;101252.66;;;28.05;57.99
23679;BME280;12016;51.668;6.874;2022-08-02T20:39:15;101258.91;;;27.94;58.79
23679;BME280;12016;51.668;6.874;2022-08-02T20:45:17;101256.13;;;27.85;59.67
23679;BME280;12016;51.668;6.874;2022-08-02T20:51:19;101255.09;;;27.73;60.38
23679;BME280;12016;51.668;6.874;2022-08-02T20:57:22;101266.56;;;27.41;62.27
23679;BME280;12016;51.668;6.874;2022-08-02T21:03:24;101260.91;;;27.32;62.86
23679;BME280;12016;51.668;6.874;2022-08-02T21:09:26;101260.31;;;27.19;63.52
23679;BME280;12016;51.668;6.874;2022-08-02T21:15:30;101266.00;;;26.95;64.81
23679;BME280;12016;51.668;6.874;2022-08-02T21:21:34;101257.31;;;26.90;64.32
23679;BME280;12016;51.668;6.874;2022-08-02T21:27:36;101252.28;;;26.85;63.88
23679;BME280;12016;51.668;6.874;2022-08-02T21:33:39;101259.75;;;26.73;64.57
23679;BME280;12016;51.668;6.874;2022-08-02T21:39:40;101256.94;;;26.55;66.50
23679;BME280;12016;51.668;6.874;2022-08-02T21:45:42;101261.09;;;26.36;66.46
23679;BME280;12016;51.668;6.874;2022-08-02T21:51:44;101260.66;;;26.28;67.10
23679;BME280;12016;51.668;6.874;2022-08-02T21:57:46;101262.84;;;26.24;66.91
23679;BME280;12016;51.668;6.874;2022-08-02T22:03:48;101259.69;;;26.04;68.02
23679;BME280;12016;51.668;6.874;2022-08-02T22:09:51;101267.44;;;25.86;68.95
23679;BME280;12016;51.668;6.874;2022-08-02T22:15:53;101279.38;;;25.72;68.88
23679;BME280;12016;51.668;6.874;2022-08-02T22:21:55;101268.97;;;25.60;69.92
23679;BME280;12016;51.668;6.874;2022-08-02T22:28:01;101269.63;;;25.73;69.12
23679;BME280;12016;51.668;6.874;2022-08-02T22:34:02;101276.56;;;25.81;69.79
23679;BME280;12016;51.668;6.874;2022-08-02T22:40:08;101268.81;;;25.72;70.25
23679;BME280;12016;51.668;6.874;2022-08-02T22:46:10;101277.78;;;25.62;70.57
23679;BME280;12016;51.668;6.874;2022-08-02T22:52:12;101281.69;;;25.37;71.25
23679;BME280;12016;51.668;6.874;2022-08-02T22:58:14;101282.59;;;25.34;70.82
23679;BME280;12016;51.668;6.874;2022-08-02T23:04:16;101273.16;;;25.37;70.81
23679;BME280;12016;51.668;6.874;2022-08-02T23:10:18;101278.00;;;25.27;71.87
23679;BME280;12016;51.668;6.874;2022-08-02T23:16:21;101283.47;;;25.13;72.70
23679;BME280;12016;51.668;6.874;2022-08-02T23:22:41;101273.06;;;25.10;72.60
23679;BME280;12016;51.668;6.874;2022-08-02T23:28:43;101278.13;;;25.06;72.64
23679;BME280;12016;51.668;6.874;2022-08-02T23:34:45;101282.31;;;24.92;72.91
23679;BME280;12016;51.668;6.874;2022-08-02T23:40:47;101293.56;;;24.83;74.27
23679;BME280;12016;51.668;6.874;2022-08-02T23:46:49;101288.56;;;24.87;74.29
23679;BME280;12016;51.668;6.874;2022-08-02T23:52:51;101285.41;;;24.85;74.77
23679;BME280;12016;51.668;6.874;2022-08-02T23:58:53;101291.53;;;24.84;74.92
